Time;durP1;ratioP1;P1;durP2;ratioP2;P2;SDS_P1;SDS_P2;PMS_P1;PMS_P2;Temp;Humidity;BMP_temperature;BMP_pressure;BME280_temperature;BME280_humidity;BME280_pressure;Samples;Min_cycle;Max_cycle;Signal;HPM_P1;HPM_P2
2021/03/29 00:00:22;;;;;;;11.40;4.27;;;12.00;60.00;;;;;;5072650;28;20476;-74
2021/03/29 00:02:49;;;;;;;10.00;4.87;;;12.00;59.60;;;;;;5072660;28;20449;-74
2021/03/29 00:05:16;;;;;;;14.00;5.33;;;12.00;59.80;;;;;;5072456;28;20935;-74
2021/03/29 00:07:47;;;;;;;8.00;4.23;;;12.00;59.80;;;;;;5072438;28;20457;-74
2021/03/29 00:10:15;;;;;;;7.63;3.50;;;12.00;59.70;;;;;;5075078;28;20431;-74
2021/03/29 00:12:45;;;;;;;9.47;4.70;;;12.10;59.90;;;;;;5076165;28;20441;-74
2021/03/29 00:15:16;;;;;;;7.77;4.23;;;12.10;59.70;;;;;;5076253;28;20456;-74
2021/03/29 00:17:43;;;;;;;11.83;4.60;;;12.10;59.50;;;;;;5075948;28;20911;-74
2021/03/29 00:20:12;;;;;;;11.43;4.40;;;12.10;59.50;;;;;;5075675;28;20485;-74
2021/03/29 00:22:39;;;;;;;10.17;4.00;;;12.10;59.50;;;;;;5076034;28;20444;-74
2021/03/29 00:25:09;;;;;;;8.23;3.93;;;12.20;59.60;;;;;;5075979;28;20436;-74
2021/03/29 00:27:35;;;;;;;12.27;5.20;;;12.20;59.50;;;;;;5076013;28;20486;-74
2021/03/29 00:30:05;;;;;;;15.87;4.90;;;12.20;59.30;;;;;;5076608;28;20445;-74
2021/03/29 00:32:32;;;;;;;18.83;4.53;;;12.10;59.20;;;;;;5075878;28;20444;-74
2021/03/29 00:34:59;;;;;;;10.60;4.37;;;12.10;59.30;;;;;;5075732;28;20465;-74
2021/03/29 00:37:26;;;;;;;11.43;4.53;;;12.10;59.30;;;;;;5076361;28;20445;-74
2021/03/29 00:39:53;;;;;;;11.10;4.10;;;12.10;59.30;;;;;;5075693;28;20852;-74
2021/03/29 00:42:20;;;;;;;16.63;4.73;;;12.10;59.40;;;;;;5075372;28;21020;-74
2021/03/29 00:44:46;;;;;;;8.37;4.30;;;12.10;59.10;;;;;;5075578;28;20472;-74
2021/03/29 00:47:13;;;;;;;18.13;4.60;;;12.10;59.20;;;;;;5075299;28;20938;-74
2021/03/29 00:49:40;;;;;;;11.10;4.40;;;12.10;59.20;;;;;;5075605;28;20810;-74
2021/03/29 00:52:07;;;;;;;7.87;4.40;;;12.00;59.00;;;;;;5076137;28;20445;-74
2021/03/29 00:54:36;;;;;;;10.87;4.53;;;12.00;59.30;;;;;;5075129;28;20950;-74
2021/03/29 00:57:03;;;;;;;11.23;4.70;;;11.90;59.20;;;;;;5075570;28;20441;-74
2021/03/29 00:59:30;;;;;;;10.13;3.73;;;11.90;59.00;;;;;;5075266;28;20994;-74
2021/03/29 01:01:57;;;;;;;15.70;4.87;;;11.90;59.30;;;;;;5075394;28;20858;-74
2021/03/29 01:04:24;;;;;;;14.13;4.33;;;11.90;59.50;;;;;;5075334;28;20464;-74
2021/03/29 01:06:51;;;;;;;7.73;4.20;;;11.80;59.30;;;;;;5074916;28;20464;-74
2021/03/29 01:09:21;;;;;;;14.47;4.40;;;11.80;59.30;;;;;;5075400;28;20463;-74
2021/03/29 01:11:51;;;;;;;16.80;4.77;;;11.70;59.30;;;;;;5075181;28;20444;-74
2021/03/29 01:14:21;;;;;;;7.07;3.43;;;11.80;59.30;;;;;;5074822;28;21032;-74
2021/03/29 01:16:52;;;;;;;10.93;4.80;;;11.80;59.30;;;;;;5075101;28;20451;-74
2021/03/29 01:19:34;;;;;;;12.77;4.00;;;11.70;59.00;;;;;;5074718;28;20974;-74
2021/03/29 01:22:06;;;;;;;13.27;4.03;;;11.80;59.20;;;;;;5073696;28;20910;-74
2021/03/29 01:24:50;;;;;;;14.63;4.67;;;11.70;59.20;;;;;;5074915;28;20465;-74
2021/03/29 01:27:21;;;;;;;8.93;3.53;;;11.70;59.30;;;;;;5074944;28;20468;-74
2021/03/29 01:29:48;;;;;;;13.67;4.30;;;11.70;59.40;;;;;;5074844;28;20436;-74
2021/03/29 01:32:15;;;;;;;12.93;4.10;;;11.70;59.50;;;;;;5074502;28;20934;-74
2021/03/29 01:34:42;;;;;;;14.40;4.53;;;11.70;59.60;;;;;;5074694;28;20490;-74
2021/03/29 01:37:10;;;;;;;15.67;3.97;;;11.60;59.50;;;;;;5074748;28;20445;-74
2021/03/29 01:39:37;;;;;;;16.37;5.77;;;11.60;59.50;;;;;;5074560;28;20488;-74
2021/03/29 01:42:05;;;;;;;14.50;5.70;;;11.60;59.60;;;;;;5074557;28;20444;-74
2021/03/29 01:44:33;;;;;;;10.90;3.77;;;11.60;59.40;;;;;;5074510;28;20480;-74
2021/03/29 01:46:59;;;;;;;14.77;4.10;;;11.60;59.40;;;;;;5074143;28;20444;-74
2021/03/29 01:49:26;;;;;;;10.90;4.37;;;11.60;59.50;;;;;;5074449;28;20808;-74
2021/03/29 01:51:54;;;;;;;14.63;5.37;;;11.60;59.30;;;;;;5074400;28;20451;-74
2021/03/29 01:54:22;;;;;;;10.57;3.67;;;11.60;59.10;;;;;;5074292;28;20461;-74
2021/03/29 01:56:48;;;;;;;10.80;3.90;;;11.60;59.40;;;;;;5074263;28;20444;-74
2021/03/29 01:59:15;;;;;;;11.87;3.90;;;11.60;59.30;;;;;;5074642;28;20527;-74
2021/03/29 02:01:42;;;;;;;9.03;4.07;;;11.60;59.30;;;;;;5074187;28;20451;-74
2021/03/29 02:04:08;;;;;;;8.17;3.50;;;11.60;59.30;;;;;;5074039;28;20465;-74
2021/03/29 02:06:36;;;;;;;8.07;3.57;;;11.60;59.60;;;;;;5073964;28;20802;-74
2021/03/29 02:09:06;;;;;;;18.63;3.20;;;11.60;59.20;;;;;;5074164;28;20503;-74
2021/03/29 02:11:33;;;;;;;8.63;3.10;;;11.60;59.10;;;;;;5073981;28;20473;-74
2021/03/29 02:14:02;;;;;;;5.13;2.93;;;11.60;59.20;;;;;;5073799;28;20465;-74
2021/03/29 02:16:29;;;;;;;16.60;4.00;;;11.70;59.00;;;;;;5073956;28;20429;-74
2021/03/29 02:19:00;;;;;;;8.47;3.63;;;11.70;59.20;;;;;;5073845;28;20451;-74
2021/03/29 02:21:33;;;;;;;9.67;3.43;;;11.70;59.10;;;;;;5073860;28;20430;-74
2021/03/29 02:24:00;;;;;;;14.10;3.37;;;11.70;59.10;;;;;;5073793;28;20870;-74
2021/03/29 02:26:31;;;;;;;11.03;4.00;;;11.60;59.10;;;;;;5073733;28;20502;-74
2021/03/29 02:28:58;;;;;;;13.13;3.27;;;11.70;59.20;;;;;;5073448;28;20440;-74
2021/03/29 02:31:26;;;;;;;7.90;3.70;;;11.70;59.10;;;;;;5073387;28;20441;-74
2021/03/29 02:33:53;;;;;;;6.63;2.93;;;11.70;59.10;;;;;;5073392;28;20467;-74
2021/03/29 02:36:21;;;;;;;10.50;3.10;;;11.60;59.10;;;;;;5073633;28;20441;-74
2021/03/29 02:38:48;;;;;;;15.13;3.57;;;11.70;59.20;;;;;;5073638;28;20433;-74
2021/03/29 02:41:14;;;;;;;8.83;2.70;;;11.60;59.20;;;;;;5073451;28;20496;-74
2021/03/29 02:43:45;;;;;;;9.60;3.10;;;11.70;59.20;;;;;;5073170;28;20974;-74
2021/03/29 02:46:11;;;;;;;10.83;3.27;;;11.60;59.20;;;;;;5073501;28;20428;-74
2021/03/29 02:48:40;;;;;;;12.93;4.03;;;11.60;59.30;;;;;;5073535;28;20501;-74
2021/03/29 02:51:09;;;;;;;6.27;3.73;;;11.60;59.30;;;;;;5073146;28;20931;-74
2021/03/29 02:53:36;;;;;;;4.87;3.00;;;11.60;59.30;;;;;;5073417;28;20491;-74
2021/03/29 02:56:07;;;;;;;17.03;3.30;;;11.60;59.30;;;;;;5073418;28;20792;-74
2021/03/29 02:58:37;;;;;;;7.50;3.47;;;11.60;59.20;;;;;;5073434;28;20428;-74
2021/03/29 03:01:07;;;;;;;7.90;2.60;;;11.60;59.30;;;;;;5073635;28;20510;-74
2021/03/29 03:03:34;;;;;;;10.23;3.43;;;11.60;59.40;;;;;;5073302;28;20472;-74
2021/03/29 03:06:01;;;;;;;7.23;2.67;;;11.60;59.40;;;;;;5073379;28;20448;-74
2021/03/29 03:08:28;;;;;;;12.13;3.40;;;11.60;59.20;;;;;;5073004;28;20463;-74
2021/03/29 03:10:55;;;;;;;4.73;2.60;;;11.60;59.20;;;;;;5072932;28;20437;-74
2021/03/29 03:13:21;;;;;;;7.90;3.00;;;11.50;59.10;;;;;;5073199;28;20460;-74
2021/03/29 03:15:48;;;;;;;10.23;2.90;;;11.50;59.50;;;;;;5073187;28;20478;-74
2021/03/29 03:18:14;;;;;;;6.80;2.47;;;11.50;59.50;;;;;;5072917;28;20805;-74
2021/03/29 03:20:40;;;;;;;6.20;2.57;;;11.50;59.50;;;;;;5073939;28;20881;-74
2021/03/29 03:23:14;;;;;;;4.80;2.50;;;11.50;59.50;;;;;;5073134;28;20467;-74
2021/03/29 03:25:42;;;;;;;11.20;3.10;;;11.50;59.50;;;;;;5073205;28;20776;-74
2021/03/29 03:28:11;;;;;;;8.83;3.17;;;11.50;59.40;;;;;;5073109;28;20451;-74
2021/03/29 03:30:39;;;;;;;7.63;2.30;;;11.50;59.60;;;;;;5072822;28;20907;-74
2021/03/29 03:33:08;;;;;;;8.30;3.33;;;11.50;59.70;;;;;;5072679;28;20990;-74
2021/03/29 03:35:35;;;;;;;17.20;2.60;;;11.50;59.80;;;;;;5073033;28;20445;-74
2021/03/29 03:38:07;;;;;;;8.80;2.57;;;11.50;60.00;;;;;;5073002;28;20517;-74
2021/03/29 03:40:35;;;;;;;10.60;2.77;;;11.50;60.20;;;;;;5072998;28;20526;-74
2021/03/29 03:43:05;;;;;;;7.90;3.23;;;11.40;60.10;;;;;;5072611;28;20467;-74
2021/03/29 03:45:35;;;;;;;9.13;3.07;;;11.40;60.20;;;;;;5075826;28;20445;-74
2021/03/29 03:48:02;;;;;;;10.17;2.93;;;11.40;60.50;;;;;;5076517;28;20922;-74
2021/03/29 03:50:29;;;;;;;14.20;2.60;;;11.40;61.40;;;;;;5076437;28;20444;-74
2021/03/29 03:52:56;;;;;;;6.70;2.70;;;11.40;60.60;;;;;;5076461;28;20448;-74
2021/03/29 03:55:23;;;;;;;9.50;2.67;;;11.40;60.60;;;;;;5076120;28;20444;-74
2021/03/29 03:57:50;;;;;;;9.90;2.60;;;11.40;60.60;;;;;;5076214;28;20431;-74
2021/03/29 04:00:18;;;;;;;6.93;3.13;;;11.40;60.80;;;;;;5076571;28;20491;-74
2021/03/29 04:02:48;;;;;;;7.33;2.80;;;11.50;61.10;;;;;;5076470;28;20811;-73
2021/03/29 04:05:15;;;;;;;4.43;2.23;;;11.40;60.90;;;;;;5076201;28;20498;-74
2021/03/29 04:07:42;;;;;;;7.10;2.83;;;11.40;60.90;;;;;;5076168;28;20452;-74
2021/03/29 04:10:15;;;;;;;5.57;2.40;;;11.40;61.30;;;;;;5076157;28;21005;-76
2021/03/29 04:12:43;;;;;;;8.73;2.97;;;11.30;62.00;;;;;;5076258;28;20436;-74
2021/03/29 04:15:10;;;;;;;10.40;2.90;;;11.30;61.40;;;;;;5076405;28;20461;-74
2021/03/29 04:17:36;;;;;;;6.83;2.50;;;11.30;61.40;;;;;;5076239;28;20444;-75
2021/03/29 04:20:05;;;;;;;7.87;2.70;;;11.30;61.60;;;;;;5076137;28;20526;-75
2021/03/29 04:22:31;;;;;;;6.43;2.53;;;11.30;61.60;;;;;;5076172;28;20444;-75
2021/03/29 04:24:57;;;;;;;13.63;3.07;;;11.30;61.80;;;;;;5076035;28;20464;-75
2021/03/29 04:27:24;;;;;;;10.20;2.77;;;11.30;61.80;;;;;;5076053;28;20444;-75
2021/03/29 04:29:50;;;;;;;6.43;2.50;;;11.30;61.90;;;;;;5076046;28;20496;-75
2021/03/29 04:32:16;;;;;;;9.10;3.00;;;11.30;62.20;;;;;;5076126;28;20458;-74
2021/03/29 04:34:42;;;;;;;11.43;2.80;;;11.30;62.30;;;;;;5075841;28;20469;-75
2021/03/29 04:37:09;;;;;;;5.13;2.40;;;11.30;62.30;;;;;;5075840;28;20440;-75
2021/03/29 04:39:36;;;;;;;7.03;2.93;;;11.20;62.50;;;;;;5075866;28;20469;-74
2021/03/29 04:42:02;;;;;;;5.77;2.80;;;11.20;62.50;;;;;;5076383;28;20486;-74
2021/03/29 04:44:28;;;;;;;11.97;3.07;;;11.20;62.70;;;;;;5075678;28;20468;-74
2021/03/29 04:46:55;;;;;;;9.60;3.10;;;11.20;62.70;;;;;;5075706;28;20445;-75
2021/03/29 04:49:21;;;;;;;11.70;2.60;;;11.20;62.80;;;;;;5075333;28;20962;-74
2021/03/29 04:51:47;;;;;;;13.97;3.13;;;11.10;63.10;;;;;;5075493;28;20445;-75
2021/03/29 04:54:14;;;;;;;12.43;2.40;;;11.10;63.10;;;;;;5075706;28;20475;-75
2021/03/29 04:56:40;;;;;;;10.73;2.90;;;11.10;63.30;;;;;;5075342;28;20432;-75
2021/03/29 04:59:06;;;;;;;12.70;2.70;;;11.10;63.30;;;;;;5075263;28;20824;-74
2021/03/29 05:01:33;;;;;;;7.07;2.93;;;11.10;64.00;;;;;;5075047;28;20472;-74
2021/03/29 05:03:59;;;;;;;8.87;2.80;;;11.10;63.40;;;;;;5075328;28;20461;-75
2021/03/29 05:06:29;;;;;;;13.30;2.80;;;11.10;63.40;;;;;;5075024;28;20837;-75
2021/03/29 05:08:55;;;;;;;9.37;2.87;;;11.10;63.50;;;;;;5075866;28;20425;-74
2021/03/29 05:11:22;;;;;;;10.00;3.00;;;11.10;63.40;;;;;;5075259;28;20436;-74
2021/03/29 05:13:48;;;;;;;13.20;3.30;;;11.10;63.60;;;;;;5075208;28;20479;-74
2021/03/29 05:16:14;;;;;;;5.70;2.87;;;11.10;63.70;;;;;;5075053;28;20809;-74
2021/03/29 05:18:41;;;;;;;9.27;3.67;;;11.10;63.70;;;;;;5075177;28;20436;-74
2021/03/29 05:21:07;;;;;;;7.60;2.90;;;11.10;63.90;;;;;;5074966;28;20476;-74
2021/03/29 05:23:33;;;;;;;16.10;4.00;;;11.00;63.80;;;;;;5075038;28;20577;-74
2021/03/29 05:25:59;;;;;;;12.90;3.80;;;11.10;64.00;;;;;;5074701;28;20440;-75
2021/03/29 05:28:26;;;;;;;8.93;3.30;;;11.10;64.10;;;;;;5074976;28;20490;-74
2021/03/29 05:30:53;;;;;;;10.67;4.07;;;11.10;64.00;;;;;;5074491;28;20931;-74
2021/03/29 05:33:19;;;;;;;13.00;3.30;;;11.10;64.00;;;;;;5074682;28;20539;-74
2021/03/29 05:35:45;;;;;;;6.93;3.20;;;11.10;63.90;;;;;;5074549;28;20935;-73
2021/03/29 05:38:11;;;;;;;11.47;3.47;;;11.10;63.90;;;;;;5074795;28;20444;-74
2021/03/29 05:40:37;;;;;;;5.90;2.40;;;11.10;64.10;;;;;;5074664;28;20488;-74
2021/03/29 05:43:05;;;;;;;8.67;2.87;;;11.10;64.00;;;;;;5074510;28;20467;-75
2021/03/29 05:45:32;;;;;;;12.43;4.00;;;11.10;64.10;;;;;;5074271;28;20482;-74
2021/03/29 05:47:59;;;;;;;11.10;3.03;;;11.10;64.00;;;;;;5074528;28;20448;-74
2021/03/29 05:50:25;;;;;;;4.13;2.20;;;11.10;63.90;;;;;;5074492;28;20440;-75
2021/03/29 05:52:51;;;;;;;8.10;2.53;;;11.10;64.10;;;;;;5074520;28;20459;-75
2021/03/29 05:55:23;;;;;;;8.03;2.80;;;11.10;64.20;;;;;;5074368;28;20455;-74
2021/03/29 05:58:09;;;;;;;6.20;2.30;;;11.10;64.30;;;;;;5074091;28;20429;-74
2021/03/29 06:00:40;;;;;;;11.67;3.17;;;11.10;64.50;;;;;;5074047;28;20460;-76
2021/03/29 06:03:27;;;;;;;5.70;2.20;;;11.10;64.50;;;;;;5074337;28;20496;-74
2021/03/29 06:05:56;;;;;;;12.30;3.07;;;11.10;64.50;;;;;;5074346;28;20460;-75
2021/03/29 06:08:23;;;;;;;9.87;2.40;;;11.20;64.40;;;;;;5073309;28;20453;-75
2021/03/29 06:10:53;;;;;;;7.60;2.67;;;11.20;64.40;;;;;;5074201;28;20441;-75
2021/03/29 06:13:21;;;;;;;5.60;2.77;;;11.20;64.50;;;;;;5073960;28;20469;-75
2021/03/29 06:15:59;;;;;;;8.17;2.50;;;11.20;64.60;;;;;;5074061;28;20451;-75
2021/03/29 06:18:25;;;;;;;13.07;3.03;;;11.20;64.80;;;;;;5074010;28;20447;-75
2021/03/29 06:21:02;;;;;;;6.23;2.60;;;11.20;64.80;;;;;;5073873;28;20533;-75
2021/03/29 06:23:28;;;;;;;8.07;2.73;;;11.30;65.00;;;;;;5073822;28;20468;-75
2021/03/29 06:26:17;;;;;;;5.67;2.27;;;11.30;64.90;;;;;;5073833;28;20452;-75
2021/03/29 06:28:43;;;;;;;6.60;2.90;;;11.30;64.90;;;;;;5073902;28;20495;-75
2021/03/29 06:31:25;;;;;;;10.30;3.13;;;11.40;64.90;;;;;;5073827;28;20440;-75
2021/03/29 06:33:52;;;;;;;11.53;3.10;;;11.40;64.80;;;;;;5073754;28;20459;-75
2021/03/29 06:36:27;;;;;;;13.47;2.80;;;11.50;64.90;;;;;;5073768;28;20506;-75
2021/03/29 06:38:54;;;;;;;9.37;3.77;;;11.50;64.70;;;;;;5073699;28;20440;-75
2021/03/29 06:41:29;;;;;;;6.70;2.40;;;11.60;64.60;;;;;;5073639;28;20484;-75
2021/03/29 06:43:55;;;;;;;8.47;3.20;;;11.60;64.50;;;;;;5073579;28;20478;-75
2021/03/29 06:46:25;;;;;;;5.93;2.40;;;11.70;64.40;;;;;;5073660;28;20425;-75
2021/03/29 06:48:53;;;;;;;4.90;2.90;;;11.80;64.30;;;;;;5073583;28;20510;-75
2021/03/29 06:51:20;;;;;;;8.47;2.83;;;11.80;64.10;;;;;;5073575;28;20536;-75
2021/03/29 06:53:51;;;;;;;8.50;4.10;;;11.90;63.90;;;;;;5073483;28;20468;-76
2021/03/29 06:56:22;;;;;;;9.20;3.23;;;12.00;64.00;;;;;;5073522;28;20425;-75
2021/03/29 06:58:49;;;;;;;6.50;2.70;;;12.10;63.90;;;;;;5073497;28;20463;-75
2021/03/29 07:01:17;;;;;;;11.27;2.63;;;12.20;63.90;;;;;;5073434;28;20477;-76
2021/03/29 07:03:46;;;;;;;11.13;2.60;;;12.30;63.70;;;;;;5073148;28;21009;-75
2021/03/29 07:06:14;;;;;;;6.70;2.40;;;12.30;63.60;;;;;;5073412;28;20429;-75
2021/03/29 07:08:42;;;;;;;7.30;2.80;;;12.40;63.50;;;;;;5072969;28;20972;-75
2021/03/29 07:11:10;;;;;;;4.30;2.80;;;12.50;63.30;;;;;;5073356;28;20453;-75
2021/03/29 07:13:38;;;;;;;10.40;3.40;;;12.70;63.30;;;;;;5073328;28;20465;-75
2021/03/29 07:16:06;;;;;;;9.90;3.23;;;12.70;63.10;;;;;;5073316;28;20429;-75
2021/03/29 07:18:34;;;;;;;11.00;3.07;;;12.80;62.80;;;;;;5073291;28;20444;-74
2021/03/29 07:21:03;;;;;;;6.43;3.10;;;13.00;63.00;;;;;;5077089;28;20461;-75
2021/03/29 07:23:30;;;;;;;6.93;2.67;;;13.00;62.70;;;;;;5077283;28;20514;-75
2021/03/29 07:25:56;;;;;;;13.77;3.70;;;13.00;61.70;;;;;;5077540;28;20448;-75
2021/03/29 07:28:23;;;;;;;10.63;2.80;;;13.10;61.30;;;;;;5076944;28;20918;-76
2021/03/29 07:30:51;;;;;;;6.90;2.80;;;13.20;61.30;;;;;;5077211;28;20494;-76
2021/03/29 07:33:19;;;;;;;6.90;2.50;;;13.20;61.10;;;;;;5077100;28;20508;-76
2021/03/29 07:35:50;;;;;;;12.63;2.90;;;13.30;60.60;;;;;;5077090;28;20444;-77
2021/03/29 07:38:19;;;;;;;5.03;2.63;;;13.40;60.50;;;;;;5077265;28;20444;-76
2021/03/29 07:40:47;;;;;;;7.77;2.40;;;13.50;60.60;;;;;;5076578;28;20989;-76
2021/03/29 07:43:16;;;;;;;5.20;2.57;;;13.50;60.20;;;;;;5076850;28;20468;-76
2021/03/29 07:45:46;;;;;;;6.37;2.50;;;13.60;60.10;;;;;;5076880;28;20463;-76
2021/03/29 07:48:15;;;;;;;8.00;2.87;;;13.70;59.60;;;;;;5076925;28;20432;-76
2021/03/29 07:50:47;;;;;;;9.40;2.40;;;13.70;59.60;;;;;;5076506;28;20947;-76
2021/03/29 07:53:22;;;;;;;6.97;2.80;;;13.70;59.20;;;;;;5076933;28;20472;-76
2021/03/29 07:55:51;;;;;;;5.30;2.40;;;13.80;59.40;;;;;;5076715;28;20439;-75
2021/03/29 07:58:18;;;;;;;10.20;2.40;;;13.90;59.70;;;;;;5076638;28;20551;-75
2021/03/29 08:00:50;;;;;;;6.80;2.90;;;14.00;59.80;;;;;;5076170;28;21006;-75
2021/03/29 08:03:36;;;;;;;7.20;2.60;;;14.00;58.70;;;;;;5076151;28;21045;-75
2021/03/29 08:06:03;;;;;;;6.37;2.70;;;14.10;59.50;;;;;;5076377;28;20456;-75
2021/03/29 08:08:40;;;;;;;13.83;2.87;;;14.10;58.40;;;;;;5076113;28;20460;-75
2021/03/29 08:11:10;;;;;;;7.50;2.77;;;14.20;58.80;;;;;;5076344;28;20440;-74
2021/03/29 08:13:38;;;;;;;12.70;3.10;;;14.30;58.50;;;;;;5076331;28;20472;-74
2021/03/29 08:16:06;;;;;;;4.90;2.23;;;14.50;58.80;;;;;;5076354;28;20425;-74
2021/03/29 08:19:09;;;;;;;7.27;2.00;;;14.60;57.60;;;;;;5076393;28;20425;-75
2021/03/29 08:21:50;;;;;;;6.53;2.40;;;14.50;56.80;;;;;;5076118;28;20471;-74
2021/03/29 08:24:22;;;;;;;5.37;2.50;;;14.50;55.80;;;;;;5076184;28;20475;-74
2021/03/29 08:26:50;;;;;;;8.77;2.93;;;14.60;57.00;;;;;;5076140;28;20425;-74
2021/03/29 08:29:21;;;;;;;6.57;2.47;;;14.70;56.80;;;;;;5076075;28;20444;-74
2021/03/29 08:32:17;;;;;;;6.90;2.80;;;14.70;55.50;;;;;;5075532;28;20425;-74
2021/03/29 08:34:52;;;;;;;8.80;2.10;;;14.80;54.50;;;;;;5075903;28;20791;-74
2021/03/29 08:37:23;;;;;;;7.17;2.00;;;14.80;54.20;;;;;;5075959;28;20444;-74
2021/03/29 08:39:51;;;;;;;3.03;1.90;;;14.90;53.80;;;;;;5075838;28;20817;-74
2021/03/29 08:42:20;;;;;;;5.97;2.40;;;14.90;53.40;;;;;;5075889;28;20448;-75
2021/03/29 08:44:49;;;;;;;8.57;3.20;;;15.00;52.00;;;;;;5075488;28;20978;-74
2021/03/29 08:47:17;;;;;;;12.93;2.53;;;15.10;52.10;;;;;;5075770;28;20445;-74
2021/03/29 08:49:45;;;;;;;9.70;2.80;;;15.10;51.40;;;;;;5075766;28;20451;-74
2021/03/29 08:52:12;;;;;;;5.50;2.07;;;15.20;51.50;;;;;;5075721;28;20451;-74
2021/03/29 08:54:51;;;;;;;7.10;2.73;;;15.20;51.70;;;;;;5075347;28;20819;-74
2021/03/29 08:57:21;;;;;;;9.50;2.10;;;15.40;51.70;;;;;;5075566;28;20425;-74
2021/03/29 08:59:51;;;;;;;8.57;2.20;;;15.50;50.80;;;;;;5075512;28;20459;-74
2021/03/29 09:02:18;;;;;;;4.80;1.90;;;15.60;50.00;;;;;;5075469;28;20441;-75
2021/03/29 09:04:48;;;;;;;3.93;2.23;;;15.70;50.30;;;;;;5075353;28;20487;-75
2021/03/29 09:07:15;;;;;;;10.63;2.10;;;15.80;49.10;;;;;;5075434;28;20456;-74
2021/03/29 09:09:41;;;;;;;6.50;2.40;;;15.90;48.90;;;;;;5075064;28;20954;-74
2021/03/29 09:12:08;;;;;;;3.83;2.27;;;16.00;49.20;;;;;;5075314;28;20429;-74
2021/03/29 09:14:35;;;;;;;9.33;2.40;;;16.10;47.70;;;;;;5075173;28;20479;-74
2021/03/29 09:17:02;;;;;;;4.83;1.93;;;16.20;46.80;;;;;;5075228;28;20444;-74
2021/03/29 09:19:28;;;;;;;5.20;2.37;;;16.20;47.90;;;;;;5074847;28;20441;-74
2021/03/29 09:21:58;;;;;;;8.50;1.80;;;16.30;47.30;;;;;;5074978;28;20480;-74
2021/03/29 09:24:26;;;;;;;8.30;2.13;;;16.40;46.60;;;;;;5075001;28;20469;-74
2021/03/29 09:27:01;;;;;;;7.43;2.03;;;16.60;44.90;;;;;;5074990;28;20502;-74
2021/03/29 09:29:32;;;;;;;5.03;2.10;;;16.60;45.70;;;;;;5074910;28;20444;-74
2021/03/29 09:32:06;;;;;;;6.27;1.87;;;16.80;46.10;;;;;;5074940;28;20512;-74
2021/03/29 09:34:35;;;;;;;5.67;2.43;;;16.90;44.50;;;;;;5074517;28;20467;-74
2021/03/29 09:37:02;;;;;;;4.83;1.90;;;17.00;44.40;;;;;;5074730;28;20448;-74
2021/03/29 09:39:30;;;;;;;5.90;1.90;;;17.10;43.00;;;;;;5074732;28;20540;-74
2021/03/29 09:41:57;;;;;;;6.37;1.97;;;17.20;44.40;;;;;;5073482;28;20511;-75
2021/03/29 09:44:26;;;;;;;6.90;2.00;;;17.30;44.60;;;;;;5074555;28;20495;-75
2021/03/29 09:46:55;;;;;;;3.43;1.50;;;17.50;44.10;;;;;;5074592;28;20449;-74
2021/03/29 09:49:23;;;;;;;5.33;1.70;;;17.70;42.90;;;;;;5074304;28;20934;-74
2021/03/29 09:51:52;;;;;;;6.50;2.03;;;17.80;41.30;;;;;;5074491;28;20432;-74
2021/03/29 09:54:26;;;;;;;9.03;2.00;;;17.80;40.80;;;;;;5074052;28;20457;-75
2021/03/29 09:56:54;;;;;;;7.37;2.13;;;18.00;42.00;;;;;;5074146;28;20931;-74
2021/03/29 09:59:27;;;;;;;8.90;1.63;;;18.10;41.90;;;;;;5074361;28;20497;-74
2021/03/29 10:01:54;;;;;;;7.50;2.00;;;18.30;42.00;;;;;;5074354;28;20566;-74
2021/03/29 10:04:22;;;;;;;6.40;2.10;;;18.50;40.10;;;;;;5073894;28;20498;-74
2021/03/29 10:06:54;;;;;;;5.87;2.53;;;18.50;39.80;;;;;;5073812;28;20512;-74
2021/03/29 10:09:34;;;;;;;8.00;2.17;;;18.60;38.20;;;;;;5074240;28;20547;-75
2021/03/29 10:12:02;;;;;;;3.80;1.93;;;18.70;40.40;;;;;;5073749;28;20957;-75
2021/03/29 10:14:32;;;;;;;4.87;1.90;;;18.70;39.30;;;;;;5074018;28;20461;-75
2021/03/29 10:17:00;;;;;;;6.33;2.33;;;18.90;40.00;;;;;;5073749;28;20891;-75
2021/03/29 10:19:34;;;;;;;12.07;2.40;;;19.10;39.80;;;;;;5073726;28;20950;-74
2021/03/29 10:22:11;;;;;;;7.40;2.30;;;19.40;40.50;;;;;;5073566;28;20994;-74
2021/03/29 10:24:55;;;;;;;5.50;2.00;;;19.70;38.40;;;;;;5073584;28;20472;-75
2021/03/29 10:27:21;;;;;;;5.20;2.00;;;19.80;36.70;;;;;;5073869;28;20432;-74
2021/03/29 10:29:48;;;;;;;5.77;2.10;;;19.90;36.30;;;;;;5073821;28;20441;-75
2021/03/29 10:32:15;;;;;;;6.33;2.23;;;20.10;36.90;;;;;;5073486;28;20456;-75
2021/03/29 10:34:43;;;;;;;4.10;2.07;;;20.30;35.80;;;;;;5073741;28;20472;-75
2021/03/29 10:37:20;;;;;;;3.77;2.00;;;20.60;36.70;;;;;;5073753;28;20797;-74
2021/03/29 10:39:46;;;;;;;5.77;1.67;;;20.80;35.40;;;;;;5073747;28;20429;-74
2021/03/29 10:42:13;;;;;;;4.70;2.10;;;21.00;35.10;;;;;;5073678;28;20537;-74
2021/03/29 10:44:39;;;;;;;2.80;1.83;;;21.20;34.70;;;;;;5073563;28;20518;-74
2021/03/29 10:47:06;;;;;;;5.53;2.17;;;21.50;31.50;;;;;;5073512;28;20435;-75
2021/03/29 10:49:32;;;;;;;3.10;1.90;;;21.70;33.20;;;;;;5073095;28;20819;-74
2021/03/29 10:51:58;;;;;;;6.60;2.10;;;22.10;33.30;;;;;;5073374;28;20424;-75
2021/03/29 10:54:25;;;;;;;3.80;2.00;;;22.80;33.10;;;;;;5073080;28;20470;-75
2021/03/29 10:56:51;;;;;;;3.73;1.70;;;22.70;28.40;;;;;;5073382;28;20425;-75
2021/03/29 10:59:18;;;;;;;6.43;1.90;;;22.70;30.60;;;;;;5073338;28;20505;-74
2021/03/29 11:01:44;;;;;;;10.50;2.00;;;22.80;32.10;;;;;;5073185;28;20480;-73
2021/03/29 11:04:10;;;;;;;6.67;2.20;;;23.00;28.60;;;;;;5072888;28;20461;-75
2021/03/29 11:06:36;;;;;;;4.13;1.50;;;22.70;29.40;;;;;;5073100;28;20451;-74
2021/03/29 11:09:03;;;;;;;4.43;1.60;;;22.70;27.80;;;;;;5073224;28;20790;-72
2021/03/29 11:11:30;;;;;;;6.70;2.13;;;22.70;27.60;;;;;;5073240;28;20437;-73
2021/03/29 11:13:56;;;;;;;6.03;1.60;;;22.80;28.20;;;;;;5073335;28;21039;-75
2021/03/29 11:16:23;;;;;;;3.60;1.80;;;23.10;28.10;;;;;;5073210;28;20429;-73
2021/03/29 11:18:50;;;;;;;6.47;1.90;;;23.30;28.80;;;;;;5073156;28;20424;-73
2021/03/29 11:21:16;;;;;;;3.57;2.03;;;23.60;29.00;;;;;;5072869;28;20574;-73
2021/03/29 11:23:42;;;;;;;8.73;2.33;;;23.90;28.70;;;;;;5072711;28;20835;-73
2021/03/29 11:26:09;;;;;;;4.77;1.80;;;24.40;27.00;;;;;;5072752;28;20943;-73
2021/03/29 11:28:36;;;;;;;5.60;1.80;;;24.80;26.70;;;;;;5073001;28;20440;-72
2021/03/29 11:31:02;;;;;;;2.60;1.87;;;24.70;26.10;;;;;;5073000;28;20441;-73
2021/03/29 11:33:29;;;;;;;5.97;2.10;;;24.40;26.40;;;;;;5072953;28;20476;-73
2021/03/29 11:35:55;;;;;;;5.90;1.90;;;24.40;26.50;;;;;;5073041;28;20439;-73
2021/03/29 11:38:21;;;;;;;5.83;2.37;;;24.40;26.90;;;;;;5072938;28;20451;-73
2021/03/29 11:40:48;;;;;;;3.43;1.37;;;24.80;25.60;;;;;;5072847;28;20477;-73
2021/03/29 11:43:14;;;;;;;5.33;2.03;;;24.90;26.30;;;;;;5072852;28;20581;-73
2021/03/29 11:45:41;;;;;;;3.70;1.70;;;25.10;26.00;;;;;;5072843;28;20502;-73
2021/03/29 11:48:08;;;;;;;3.63;1.80;;;25.00;23.10;;;;;;5072777;28;20444;-73
2021/03/29 11:50:35;;;;;;;4.90;1.60;;;25.10;23.50;;;;;;5072998;28;20429;-73
2021/03/29 11:53:01;;;;;;;4.40;2.07;;;25.10;23.80;;;;;;5072873;28;20490;-75
2021/03/29 11:55:28;;;;;;;3.37;1.90;;;25.10;23.70;;;;;;5072804;28;20444;-73
2021/03/29 11:57:55;;;;;;;4.80;1.67;;;25.10;23.20;;;;;;5072445;28;20966;-74
2021/03/29 12:00:26;;;;;;;3.00;1.67;;;25.30;24.10;;;;;;5072692;28;20461;-75
2021/03/29 12:03:00;;;;;;;6.23;2.10;;;25.40;24.60;;;;;;5072677;28;20482;-74
2021/03/29 12:05:28;;;;;;;3.43;1.80;;;26.00;25.30;;;;;;5073546;28;20980;-75
2021/03/29 12:08:11;;;;;;;5.17;2.00;;;26.40;23.90;;;;;;5076252;28;20460;-72
2021/03/29 12:13:22;;;;;;;2.63;1.63;;;26.20;21.80;;;;;;5076227;28;20467;-73
2021/03/29 12:15:50;;;;;;;3.80;2.07;;;26.10;22.50;;;;;;5076088;28;20441;-73
2021/03/29 12:18:31;;;;;;;3.37;2.00;;;26.10;22.90;;;;;;5075866;28;20523;-73
2021/03/29 12:20:58;;;;;;;2.30;1.33;;;26.00;22.50;;;;;;5075637;28;20978;-73
2021/03/29 12:23:24;;;;;;;3.67;1.70;;;26.10;22.80;;;;;;5075759;28;20461;-73
2021/03/29 12:25:52;;;;;;;6.53;2.07;;;26.40;23.00;;;;;;5076075;28;20513;-74
2021/03/29 12:28:20;;;;;;;6.63;1.97;;;26.80;22.90;;;;;;5075739;28;20429;-73
2021/03/29 12:30:47;;;;;;;5.17;1.70;;;27.00;21.50;;;;;;5076002;28;20440;-73
2021/03/29 12:33:13;;;;;;;3.13;1.57;;;26.90;21.20;;;;;;5075697;28;20550;-73
2021/03/29 12:35:41;;;;;;;3.83;2.00;;;26.70;22.40;;;;;;5075625;28;20428;-73
2021/03/29 12:38:09;;;;;;;4.87;1.83;;;27.00;22.30;;;;;;5076104;28;20433;-73
2021/03/29 12:40:41;;;;;;;3.93;1.70;;;27.20;20.30;;;;;;5075943;28;20480;-74
2021/03/29 12:43:11;;;;;;;3.73;1.90;;;27.70;21.70;;;;;;5075780;28;20982;-74
2021/03/29 12:45:41;;;;;;;2.97;1.40;;;27.60;19.90;;;;;;5075919;28;20448;-73
2021/03/29 12:48:09;;;;;;;2.17;1.47;;;26.90;18.40;;;;;;5075566;28;20891;-73
2021/03/29 12:50:36;;;;;;;4.40;1.87;;;26.90;20.60;;;;;;5075455;28;20940;-73
2021/03/29 12:53:04;;;;;;;3.93;1.77;;;27.10;20.50;;;;;;5075649;28;20429;-73